createdAt,value
2024-05-09T00:00:42.083Z,8.15
2024-05-09T00:03:10.981Z,7.50
2024-05-09T00:05:41.068Z,8.80
2024-05-09T00:08:09.523Z,10.88
2024-05-09T00:10:39.073Z,11.65
2024-05-09T00:13:07.789Z,8.30
2024-05-09T00:15:35.959Z,9.88
2024-05-09T00:18:04.375Z,9.18
2024-05-09T00:20:38.194Z,9.30
2024-05-09T00:23:12.338Z,10.18
2024-05-09T00:25:42.127Z,12.00
2024-05-09T00:28:09.507Z,12.07
2024-05-09T00:30:37.483Z,12.40
2024-05-09T00:33:06.706Z,7.65
2024-05-09T00:35:35.243Z,11.77
2024-05-09T00:38:02.582Z,11.60
2024-05-09T00:40:40.838Z,8.23
2024-05-09T00:43:11.120Z,8.48
2024-05-09T00:45:38.568Z,11.38
2024-05-09T00:48:07.789Z,9.70
2024-05-09T00:50:38.082Z,10.07
2024-05-09T00:53:06.809Z,8.63
2024-05-09T00:55:35.343Z,9.85
2024-05-09T00:58:03.182Z,8.52
2024-05-09T01:00:37.859Z,9.07
2024-05-09T01:03:08.843Z,11.15
2024-05-09T01:05:39.065Z,9.30
2024-05-09T01:08:07.060Z,10.35
2024-05-09T01:10:35.974Z,12.05
2024-05-09T01:13:07.271Z,7.50
2024-05-09T01:15:35.363Z,12.02
2024-05-09T01:18:07.028Z,9.45
2024-05-09T01:20:41.275Z,8.68
2024-05-09T01:23:11.955Z,12.02
2024-05-09T01:25:39.890Z,11.02
2024-05-09T01:28:07.338Z,12.73
2024-05-09T01:30:37.024Z,9.23
2024-05-09T01:33:09.940Z,7.53
2024-05-09T01:35:41.457Z,9.07
2024-05-09T01:38:12.163Z,6.95
2024-05-09T01:40:40.386Z,11.90
2024-05-09T01:43:12.283Z,10.18
2024-05-09T01:45:40.380Z,13.75
2024-05-09T01:48:08.457Z,8.52
2024-05-09T01:50:40.074Z,8.25
2024-05-09T01:53:12.249Z,11.20
2024-05-09T01:55:39.784Z,15.73
2024-05-09T01:58:07.489Z,10.98
2024-05-09T02:00:40.079Z,9.82
2024-05-09T02:03:16.049Z,8.38
2024-05-09T02:05:45.740Z,8.65
2024-05-09T02:08:18.530Z,7.57
2024-05-09T02:10:47.260Z,9.35
2024-05-09T02:13:15.134Z,9.93
2024-05-09T02:15:42.413Z,8.70
2024-05-09T02:18:10.431Z,7.28
2024-05-09T02:20:39.217Z,14.35
2024-05-09T02:23:07.154Z,9.93
2024-05-09T02:25:34.986Z,13.55
2024-05-09T02:28:02.472Z,9.20
2024-05-09T02:30:38.175Z,10.05
2024-05-09T02:33:09.948Z,11.70
2024-05-09T02:35:38.994Z,10.43
2024-05-09T02:38:06.382Z,13.85
2024-05-09T02:40:37.451Z,13.20
2024-05-09T02:43:11.111Z,11.15
2024-05-09T02:45:39.854Z,12.55
2024-05-09T02:48:10.122Z,13.45
2024-05-09T02:50:39.643Z,9.77
2024-05-09T02:53:14.572Z,10.15
2024-05-09T02:55:42.234Z,9.30
2024-05-09T02:58:09.892Z,7.18
2024-05-09T03:00:40.696Z,9.40
2024-05-09T03:03:14.742Z,12.93
2024-05-09T03:05:43.967Z,11.27
2024-05-09T03:08:11.568Z,8.13
2024-05-09T03:10:39.583Z,9.60
2024-05-09T03:13:12.907Z,13.38
2024-05-09T03:15:41.343Z,8.50
2024-05-09T03:18:08.837Z,11.40
2024-05-09T03:20:37.059Z,9.35
2024-05-09T03:23:06.261Z,5.93
2024-05-09T03:25:34.079Z,10.40
2024-05-09T03:28:01.743Z,8.15
2024-05-09T03:30:39.071Z,11.55
2024-05-09T03:33:18.611Z,8.50
2024-05-09T03:35:48.941Z,8.23
2024-05-09T03:38:17.103Z,8.07
2024-05-09T03:40:45.992Z,7.47
2024-05-09T03:43:13.566Z,12.45
2024-05-09T03:45:40.774Z,8.85
2024-05-09T03:48:08.471Z,6.28
2024-05-09T03:50:37.077Z,12.75
2024-05-09T03:53:05.076Z,7.53
2024-05-09T03:55:32.790Z,4.82
2024-05-09T03:58:00.620Z,6.35
2024-05-09T04:00:35.588Z,6.45
2024-05-09T04:03:10.273Z,6.97
2024-05-09T04:05:41.774Z,6.07
2024-05-09T04:08:12.398Z,6.07
2024-05-09T04:10:40.448Z,7.40
2024-05-09T04:13:09.256Z,5.82
2024-05-09T04:15:36.600Z,5.05
2024-05-09T04:18:04.154Z,6.13
2024-05-09T04:20:38.683Z,6.55
2024-05-09T04:23:10.851Z,7.53
2024-05-09T04:25:38.409Z,8.02
2024-05-09T04:28:12.076Z,6.93
2024-05-09T04:30:41.295Z,5.82
2024-05-09T04:33:14.294Z,4.75
2024-05-09T04:35:43.397Z,12.32
2024-05-09T04:38:11.377Z,8.07
2024-05-09T04:40:38.766Z,6.15
2024-05-09T04:43:06.977Z,10.35
2024-05-09T04:45:35.259Z,6.82
2024-05-09T04:48:03.359Z,8.40
2024-05-09T04:50:36.786Z,7.10
2024-05-09T04:53:08.393Z,6.40
2024-05-09T04:55:37.322Z,6.25
2024-05-09T04:58:05.719Z,9.68
2024-05-09T05:00:37.201Z,10.82
2024-05-09T05:03:08.390Z,6.40
2024-05-09T05:18:43.911Z,6.10
2024-05-09T05:21:35.263Z,4.47
2024-05-09T05:24:23.084Z,7.13
2024-05-09T05:27:01.260Z,6.50
2024-05-09T05:29:38.147Z,5.30
2024-05-09T05:32:16.227Z,7.95
2024-05-09T05:35:01.612Z,11.40
2024-05-09T05:37:40.278Z,5.85
2024-05-09T05:43:31.858Z,8.10
2024-05-09T05:46:09.922Z,7.65
2024-05-09T05:51:52.969Z,8.43
2024-05-09T05:54:25.331Z,6.78
2024-05-09T05:56:52.758Z,5.55
2024-05-09T05:59:20.071Z,7.18
2024-05-09T06:01:47.691Z,6.00
2024-05-09T06:04:15.006Z,7.68
2024-05-09T06:06:42.264Z,6.80
2024-05-09T06:09:09.564Z,6.28
2024-05-09T06:11:36.833Z,5.60
2024-05-09T06:14:05.546Z,6.85
2024-05-09T06:16:32.963Z,7.38
2024-05-09T06:19:00.099Z,6.45
2024-05-09T06:21:27.283Z,7.50
2024-05-09T06:23:54.749Z,7.78
2024-05-09T06:26:21.906Z,7.78
2024-05-09T06:28:49.106Z,4.93
2024-05-09T06:31:16.794Z,8.00
2024-05-09T06:33:44.281Z,6.40
2024-05-09T06:36:12.388Z,5.60
2024-05-09T06:38:39.822Z,5.72
2024-05-09T06:41:07.241Z,8.65
2024-05-09T06:43:35.282Z,5.68
2024-05-09T06:46:03.040Z,6.28
2024-05-09T06:48:31.887Z,13.93
2024-05-09T06:50:59.294Z,3.63
2024-05-09T06:53:26.695Z,9.05
2024-05-09T06:55:54.085Z,6.20
2024-05-09T06:58:21.273Z,10.98
2024-05-09T07:00:51.006Z,8.55
2024-05-09T07:03:19.683Z,6.78
2024-05-09T07:05:48.840Z,5.60
2024-05-09T07:08:17.878Z,6.35
2024-05-09T07:10:48.851Z,10.90
2024-05-09T07:13:16.777Z,6.82
2024-05-09T07:15:44.321Z,5.13
2024-05-09T07:18:12.577Z,5.20
2024-05-09T07:20:40.814Z,7.75
2024-05-09T07:23:12.106Z,6.07
2024-05-09T07:25:42.559Z,4.88
2024-05-09T07:28:18.775Z,10.93
2024-05-09T07:33:17.880Z,9.50
2024-05-09T07:35:46.507Z,6.95
2024-05-09T07:38:14.056Z,6.43
2024-05-09T07:40:41.802Z,8.80
2024-05-09T07:43:11.806Z,4.53
2024-05-09T07:45:48.716Z,5.07
2024-05-09T07:52:38.316Z,7.35
2024-05-09T07:53:46.543Z,7.22
2024-05-09T07:56:18.100Z,3.55
2024-05-09T07:58:45.989Z,5.57
2024-05-09T08:01:13.287Z,6.20
2024-05-09T08:03:41.043Z,7.68
2024-05-09T08:06:08.249Z,3.72
2024-05-09T08:08:35.345Z,8.43
2024-05-09T08:11:02.911Z,5.90
2024-05-09T08:13:30.066Z,5.82
2024-05-09T08:15:57.317Z,9.13
2024-05-09T08:18:24.653Z,10.88
2024-05-09T08:20:52.587Z,7.07
2024-05-09T08:23:19.759Z,4.88
2024-05-09T08:25:47.973Z,6.05
2024-05-09T08:28:15.424Z,3.90
2024-05-09T08:30:43.159Z,8.57
2024-05-09T08:33:10.611Z,3.45
2024-05-09T08:35:37.823Z,6.40
2024-05-09T08:38:06.193Z,3.25
2024-05-09T08:40:36.239Z,2.95
2024-05-09T08:43:10.851Z,3.42
2024-05-09T08:45:43.591Z,12.93
2024-05-09T08:48:12.884Z,11.68
2024-05-09T08:50:40.958Z,4.85
2024-05-09T08:53:08.949Z,8.65
2024-05-09T08:55:40.416Z,5.28
2024-05-09T08:58:12.752Z,5.57
2024-05-09T09:00:40.100Z,4.40
2024-05-09T09:03:07.838Z,2.42
2024-05-09T09:05:35.166Z,2.63
2024-05-09T09:08:04.466Z,6.15
2024-05-09T09:10:33.005Z,3.45
2024-05-09T09:13:05.057Z,2.95
2024-05-09T09:15:33.175Z,11.02
2024-05-09T09:18:01.071Z,5.32
2024-05-09T09:20:35.936Z,3.67
2024-05-09T09:23:04.824Z,5.30
2024-05-09T09:25:32.413Z,2.38
2024-05-09T09:27:59.745Z,6.55
2024-05-09T09:30:35.185Z,6.55
2024-05-09T09:33:06.467Z,5.72
2024-05-09T09:35:34.635Z,6.13
2024-05-09T09:38:05.981Z,6.72
2024-05-09T09:40:40.972Z,2.97
2024-05-09T09:43:23.260Z,10.45
2024-05-09T09:45:53.227Z,3.70
2024-05-09T09:48:22.757Z,2.25
2024-05-09T09:50:51.524Z,3.13
2024-05-09T09:53:19.287Z,2.05
2024-05-09T09:55:46.782Z,2.78
2024-05-09T09:58:14.862Z,4.85
2024-05-09T10:00:42.421Z,2.22
2024-05-09T10:03:09.860Z,4.97
2024-05-09T10:05:37.544Z,5.45
2024-05-09T10:08:06.731Z,4.50
2024-05-09T10:10:35.116Z,3.28
2024-05-09T10:13:06.634Z,3.00
2024-05-09T10:15:46.866Z,2.90
2024-05-09T10:18:14.896Z,4.65
2024-05-09T10:20:46.155Z,4.38
2024-05-09T10:23:30.394Z,1.63
2024-05-09T10:26:05.396Z,1.17
2024-05-09T10:28:34.009Z,5.18
2024-05-09T10:31:15.072Z,1.95
2024-05-09T10:33:47.756Z,2.95
2024-05-09T10:36:25.075Z,4.13
2024-05-09T10:38:53.347Z,4.78
2024-05-09T10:41:21.219Z,4.53
2024-05-09T10:43:48.654Z,4.05
2024-05-09T10:46:16.707Z,2.65
2024-05-09T10:48:44.621Z,1.30
2024-05-09T10:51:16.273Z,3.20
2024-05-09T10:53:44.235Z,3.03
2024-05-09T10:56:12.076Z,4.13
2024-05-09T10:58:39.337Z,3.45
2024-05-09T11:01:07.476Z,2.65
2024-05-09T11:03:35.651Z,1.65
2024-05-09T11:06:03.334Z,4.32
2024-05-09T11:08:32.494Z,2.10
2024-05-09T11:11:00.300Z,2.58
2024-05-09T11:13:31.051Z,1.33
2024-05-09T11:15:59.274Z,1.75
2024-05-09T11:18:29.798Z,2.47
2024-05-09T11:20:59.387Z,3.78
2024-05-09T11:23:27.498Z,2.65
2024-05-09T11:25:56.586Z,4.05
2024-05-09T11:28:24.054Z,3.40
2024-05-09T11:30:51.495Z,1.42
2024-05-09T11:33:19.511Z,1.92
2024-05-09T11:35:47.205Z,1.42
2024-05-09T11:38:14.373Z,2.10
2024-05-09T11:40:41.931Z,0.85
2024-05-09T11:43:09.165Z,3.67
2024-05-09T11:45:36.446Z,0.95
2024-05-09T11:48:04.793Z,2.17
2024-05-09T11:50:35.887Z,0.93
2024-05-09T11:53:03.946Z,1.05
2024-05-09T11:55:31.270Z,1.33
2024-05-09T11:57:58.570Z,5.43
2024-05-09T12:00:33.953Z,5.25
2024-05-09T12:03:05.698Z,1.52
2024-05-09T12:05:34.262Z,0.98
2024-05-09T12:08:02.055Z,8.93
2024-05-09T12:10:33.772Z,2.60
2024-05-09T12:13:05.347Z,2.38
2024-05-09T12:15:38.256Z,1.38
2024-05-09T12:18:07.168Z,3.97
2024-05-09T12:20:38.499Z,0.77
2024-05-09T12:23:10.076Z,0.60
2024-05-09T12:25:43.223Z,4.40
2024-05-09T12:28:16.076Z,1.02
2024-05-09T12:30:43.331Z,0.93
2024-05-09T12:33:12.365Z,0.73
2024-05-09T12:35:43.338Z,1.17
2024-05-09T12:38:13.655Z,0.85
2024-05-09T12:40:46.815Z,0.45
2024-05-09T12:43:16.290Z,0.95
2024-05-09T12:45:51.782Z,2.28
2024-05-09T12:48:19.285Z,2.92
2024-05-09T12:50:46.814Z,0.77
2024-05-09T12:53:14.119Z,1.63
2024-05-09T12:55:48.442Z,0.68
2024-05-09T12:58:24.588Z,4.10
2024-05-09T13:00:52.787Z,1.02
2024-05-09T13:03:20.954Z,2.10
2024-05-09T13:05:49.737Z,1.85
2024-05-09T13:08:17.151Z,1.38
2024-05-09T13:10:44.524Z,2.05
2024-05-09T13:13:12.370Z,4.38
2024-05-09T13:15:40.016Z,5.35
2024-05-09T13:18:07.593Z,2.38
2024-05-09T13:20:36.308Z,2.13
2024-05-09T13:23:08.253Z,4.82
2024-05-09T13:25:37.107Z,2.35
2024-05-09T13:28:05.837Z,5.43
2024-05-09T13:30:39.620Z,3.33
2024-05-09T13:33:14.747Z,3.00
2024-05-09T13:35:46.916Z,2.38
2024-05-09T13:38:21.199Z,5.50
2024-05-09T13:40:49.838Z,0.47
2024-05-09T13:43:18.301Z,1.40
2024-05-09T13:45:45.825Z,1.42
2024-05-09T13:48:13.243Z,3.15
2024-05-09T13:50:40.876Z,3.30
2024-05-09T13:53:08.993Z,11.88
2024-05-09T13:55:40.653Z,2.60
2024-05-09T13:58:09.132Z,3.70
2024-05-09T14:00:45.166Z,5.28
2024-05-09T14:03:17.116Z,1.92
2024-05-09T14:05:46.763Z,6.32
2024-05-09T14:08:15.699Z,2.33
2024-05-09T14:10:48.942Z,1.05
2024-05-09T14:13:16.745Z,0.80
2024-05-09T14:15:46.835Z,1.70
2024-05-09T14:18:18.508Z,5.70
2024-05-09T14:20:45.790Z,1.27
2024-05-09T14:23:13.248Z,1.10
2024-05-09T14:25:42.662Z,1.83
2024-05-09T14:28:12.561Z,0.73
2024-05-09T14:30:45.094Z,2.15
2024-05-09T14:33:12.649Z,1.02
2024-05-09T14:35:40.425Z,2.08
2024-05-09T14:38:08.933Z,2.55
2024-05-09T14:40:41.723Z,1.92
2024-05-09T14:43:11.902Z,3.22
2024-05-09T14:45:39.669Z,1.25
2024-05-09T14:48:07.789Z,1.55
2024-05-09T14:50:38.644Z,1.27
2024-05-09T14:53:08.266Z,0.95
2024-05-09T14:55:37.230Z,2.95
2024-05-09T14:58:09.687Z,1.05
2024-05-09T15:00:45.775Z,2.20
2024-05-09T15:03:17.975Z,3.20
2024-05-09T15:05:45.601Z,3.65
2024-05-09T15:08:12.853Z,1.17
2024-05-09T15:10:40.325Z,7.13
2024-05-09T15:13:09.649Z,2.58
2024-05-09T15:15:38.502Z,3.53
2024-05-09T15:18:06.400Z,7.68
2024-05-09T15:20:36.616Z,4.30
2024-05-09T15:23:05.266Z,6.63
2024-05-09T15:25:36.380Z,2.15
2024-05-09T15:28:05.135Z,2.92
2024-05-09T15:30:34.203Z,1.42
2024-05-09T15:33:06.763Z,13.02
2024-05-09T15:35:35.787Z,4.68
2024-05-09T15:38:04.747Z,6.38
2024-05-09T15:40:39.072Z,3.75
2024-05-09T15:43:10.860Z,2.17
2024-05-09T15:45:40.438Z,1.42
2024-05-09T15:48:10.638Z,1.13
2024-05-09T15:50:41.555Z,2.65
2024-05-09T15:53:11.824Z,3.05
2024-05-09T15:55:39.995Z,1.00
2024-05-09T15:58:07.835Z,2.05
2024-05-09T16:00:39.573Z,7.43
2024-05-09T16:03:10.626Z,5.53
2024-05-09T16:05:45.235Z,2.80
2024-05-09T16:08:13.150Z,4.63
2024-05-09T16:10:44.261Z,2.83
2024-05-09T16:13:13.390Z,4.00
2024-05-09T16:15:41.371Z,6.90
2024-05-09T16:18:09.263Z,1.30
2024-05-09T16:20:40.362Z,3.17
2024-05-09T16:23:11.225Z,0.90
2024-05-09T16:25:39.571Z,1.98
2024-05-09T16:28:10.181Z,3.25
2024-05-09T16:30:41.308Z,2.85
2024-05-09T16:33:09.519Z,1.90
2024-05-09T16:35:37.812Z,1.67
2024-05-09T16:38:05.901Z,5.82
2024-05-09T16:40:38.732Z,3.67
2024-05-09T16:43:10.349Z,2.67
2024-05-09T16:45:43.288Z,1.50
2024-05-09T16:48:11.976Z,2.10
2024-05-09T16:50:39.272Z,5.55
2024-05-09T16:53:07.307Z,3.38
2024-05-09T16:55:35.702Z,0.50
2024-05-09T16:58:07.085Z,3.80
2024-05-09T17:00:42.122Z,1.85
2024-05-09T17:03:16.645Z,1.60
2024-05-09T17:05:47.271Z,3.70
2024-05-09T17:08:22.483Z,3.08
2024-05-09T17:10:50.593Z,4.78
2024-05-09T17:13:21.713Z,1.90
2024-05-09T17:15:52.977Z,4.43
2024-05-09T17:18:20.667Z,0.98
2024-05-09T17:20:51.777Z,3.25
2024-05-09T17:23:20.409Z,6.18
2024-05-09T17:25:48.809Z,0.22
2024-05-09T17:28:16.146Z,2.22
2024-05-09T17:30:43.770Z,3.83
2024-05-09T17:33:13.433Z,1.60
2024-05-09T17:35:45.796Z,4.60
2024-05-09T17:38:14.037Z,3.70
2024-05-09T17:40:41.386Z,2.83
2024-05-09T17:43:10.604Z,0.77
2024-05-09T17:45:42.320Z,2.55
2024-05-09T17:48:11.029Z,3.35
2024-05-09T17:50:39.874Z,4.30
2024-05-09T17:53:08.878Z,3.67
2024-05-09T17:55:36.730Z,0.40
2024-05-09T17:58:05.248Z,1.67
2024-05-09T18:00:39.087Z,2.45
2024-05-09T18:03:11.741Z,1.95
2024-05-09T18:05:40.422Z,3.20
2024-05-09T18:08:08.452Z,7.50
2024-05-09T18:10:38.666Z,1.17
2024-05-09T18:13:11.404Z,4.85
2024-05-09T18:15:39.816Z,0.68
2024-05-09T18:18:08.930Z,1.05
2024-05-09T18:20:42.624Z,3.78
2024-05-09T18:23:14.383Z,1.15
2024-05-09T18:25:42.958Z,1.70
2024-05-09T18:28:11.959Z,0.63
2024-05-09T18:30:40.376Z,1.45
2024-05-09T18:33:09.783Z,1.45
2024-05-09T18:35:39.011Z,5.55
2024-05-09T18:38:06.545Z,2.17
2024-05-09T18:40:36.795Z,1.52
2024-05-09T18:43:07.389Z,2.60
2024-05-09T18:45:38.098Z,4.60
2024-05-09T18:48:07.587Z,3.42
2024-05-09T18:50:40.476Z,2.60
2024-05-09T18:53:10.659Z,4.53
2024-05-09T18:55:38.693Z,4.05
2024-05-09T18:58:05.974Z,3.40
2024-05-09T19:00:36.970Z,2.75
2024-05-09T19:03:09.680Z,2.70
2024-05-09T19:05:39.344Z,7.93
2024-05-09T19:08:07.840Z,10.73
2024-05-09T19:10:36.473Z,4.47
2024-05-09T19:13:08.658Z,7.00
2024-05-09T19:15:39.699Z,5.35
2024-05-09T19:18:07.553Z,3.97
2024-05-09T19:20:36.445Z,6.00
2024-05-09T19:23:07.638Z,6.15
2024-05-09T19:25:35.704Z,5.97
2024-05-09T19:28:04.022Z,7.22
2024-05-09T19:30:38.628Z,6.00
2024-05-09T19:33:09.779Z,6.90
2024-05-09T19:35:38.918Z,6.30
2024-05-09T19:38:06.255Z,7.38
2024-05-09T19:40:35.026Z,4.82
2024-05-09T19:43:04.244Z,3.22
2024-05-09T19:45:33.540Z,2.40
2024-05-09T19:48:01.672Z,4.70
2024-05-09T19:50:37.213Z,8.43
2024-05-09T19:53:10.201Z,7.50
2024-05-09T19:55:38.067Z,5.18
2024-05-09T19:58:07.440Z,3.42
2024-05-09T20:00:40.915Z,5.15
2024-05-09T20:04:02.203Z,4.07
2024-05-09T20:06:30.686Z,5.88
2024-05-09T20:08:59.087Z,4.65
2024-05-09T20:11:26.440Z,9.45
2024-05-09T20:13:53.575Z,6.63
2024-05-09T20:16:20.881Z,5.55
2024-05-09T20:18:48.439Z,4.15
2024-05-09T20:21:15.856Z,7.97
2024-05-09T20:23:42.976Z,9.98
2024-05-09T20:26:10.753Z,7.18
2024-05-09T20:28:37.811Z,5.80
2024-05-09T20:31:06.353Z,4.55
2024-05-09T20:33:34.093Z,5.18
2024-05-09T20:36:02.578Z,4.88
2024-05-09T20:38:30.683Z,7.00
2024-05-09T20:40:58.098Z,7.22
2024-05-09T20:43:25.530Z,5.57
2024-05-09T20:45:53.096Z,6.97
2024-05-09T20:48:20.459Z,7.43
2024-05-09T20:50:50.823Z,5.00
2024-05-09T20:53:18.408Z,6.43
2024-05-09T20:55:46.035Z,3.05
2024-05-09T20:58:13.732Z,7.18
2024-05-09T21:00:44.392Z,4.80
2024-05-09T21:03:16.606Z,6.25
2024-05-09T21:05:45.051Z,11.82
2024-05-09T21:08:12.585Z,7.50
2024-05-09T21:10:40.300Z,7.63
2024-05-09T21:13:08.002Z,4.85
2024-05-09T21:15:36.367Z,4.70
2024-05-09T21:18:04.841Z,8.85
2024-05-09T21:20:35.668Z,7.15
2024-05-09T21:23:06.207Z,5.47
2024-05-09T21:25:35.466Z,5.35
2024-05-09T21:28:03.257Z,6.90
2024-05-09T21:30:38.352Z,10.23
2024-05-09T21:33:11.559Z,5.72
2024-05-09T21:35:41.248Z,4.22
2024-05-09T21:38:08.525Z,5.93
2024-05-09T21:40:37.046Z,3.63
2024-05-09T21:43:08.402Z,6.85
2024-05-09T21:45:36.017Z,4.55
2024-05-09T21:48:04.159Z,6.10
2024-05-09T21:50:38.696Z,4.13
2024-05-09T21:53:08.662Z,7.63
2024-05-09T21:55:35.943Z,5.10
2024-05-09T21:58:03.629Z,11.30
2024-05-09T22:00:36.763Z,4.45
2024-05-09T22:03:10.085Z,3.38
2024-05-09T22:05:39.158Z,3.88
2024-05-09T22:08:07.194Z,3.28
2024-05-09T22:10:36.304Z,3.03
2024-05-09T22:13:08.327Z,4.82
2024-05-09T22:15:37.208Z,9.27
2024-05-09T22:18:05.708Z,8.15
2024-05-09T22:20:37.797Z,4.85
2024-05-09T22:23:07.626Z,3.47
2024-05-09T22:25:35.275Z,2.83
2024-05-09T22:28:03.194Z,1.55
2024-05-09T22:30:36.708Z,1.60
2024-05-09T22:33:08.143Z,1.45
2024-05-09T22:35:35.917Z,4.05
2024-05-09T22:38:03.557Z,2.90
2024-05-09T22:40:41.649Z,5.70
2024-05-09T22:43:17.144Z,4.55
2024-05-09T22:45:44.617Z,4.72
2024-05-09T22:48:12.002Z,3.65
2024-05-09T22:50:40.162Z,3.17
2024-05-09T22:53:07.230Z,2.97
2024-05-09T22:55:34.612Z,2.08
2024-05-09T22:58:01.732Z,5.70
2024-05-09T23:00:31.906Z,2.95
2024-05-09T23:03:01.116Z,2.97
2024-05-09T23:05:28.766Z,1.63
2024-05-09T23:07:56.174Z,4.93
2024-05-09T23:10:31.134Z,2.63
2024-05-09T23:13:02.879Z,2.72
2024-05-09T23:15:30.412Z,3.88
2024-05-09T23:17:58.390Z,2.63
2024-05-09T23:20:35.917Z,6.35
2024-05-09T23:23:07.080Z,5.72
2024-05-09T23:25:34.723Z,4.45
2024-05-09T23:28:02.156Z,7.43
2024-05-09T23:30:36.973Z,3.75
2024-05-09T23:33:07.462Z,3.80
2024-05-09T23:38:59.170Z,5.38
2024-05-09T23:41:43.562Z,5.38
2024-05-09T23:44:22.102Z,3.53
2024-05-09T23:46:52.999Z,5.68
2024-05-09T23:49:20.256Z,3.30
2024-05-09T23:51:47.493Z,4.55
2024-05-09T23:54:16.846Z,3.83
2024-05-09T23:56:44.034Z,6.03
2024-05-09T23:59:11.186Z,1.30
